createdAt,value
2018-09-05T00:00:11.307Z,17.47
2018-09-05T00:04:55.509Z,9.17
2018-09-05T00:09:39.138Z,10.67
2018-09-05T00:14:27.831Z,12.73
2018-09-05T00:19:11.330Z,13.17
2018-09-05T00:23:58.490Z,20.63
2018-09-05T00:28:42.067Z,26.10
2018-09-05T00:33:26.778Z,21.20
2018-09-05T00:38:10.347Z,13.90
2018-09-05T00:42:55.115Z,14.57
2018-09-05T00:47:38.659Z,14.80
2018-09-05T00:52:23.239Z,18.87
2018-09-05T00:57:06.715Z,18.13
2018-09-05T01:01:51.378Z,19.77
2018-09-05T01:06:34.733Z,15.23
2018-09-05T01:11:19.322Z,16.17
2018-09-05T01:16:02.576Z,24.67
2018-09-05T01:20:46.938Z,14.80
2018-09-05T01:25:30.290Z,19.63
2018-09-05T01:30:13.674Z,13.03
2018-09-05T01:35:01.097Z,13.43
2018-09-05T01:39:44.454Z,17.53
2018-09-05T01:44:29.082Z,15.33
2018-09-05T01:49:12.580Z,12.00
2018-09-05T01:53:56.117Z,19.03
2018-09-05T01:58:39.472Z,18.97
2018-09-05T02:03:22.863Z,18.63
2018-09-05T02:08:06.137Z,19.73
2018-09-05T02:12:49.669Z,16.07
2018-09-05T02:17:33.090Z,17.37
2018-09-05T02:22:17.513Z,18.70
2018-09-05T02:27:00.864Z,13.53
2018-09-05T02:31:48.454Z,13.93
2018-09-05T02:36:31.883Z,12.57
2018-09-05T02:41:18.316Z,15.30
2018-09-05T02:46:01.734Z,18.20
2018-09-05T02:50:48.340Z,14.60
2018-09-05T02:55:37.041Z,14.80
2018-09-05T03:00:20.285Z,14.10
2018-09-05T03:05:03.641Z,17.87
2018-09-05T03:09:47.026Z,12.83
2018-09-05T03:14:31.473Z,14.23
2018-09-05T03:19:14.937Z,12.80
2018-09-05T03:23:58.523Z,13.23
2018-09-05T03:28:41.916Z,13.67
2018-09-05T03:33:25.428Z,15.40
2018-09-05T03:38:08.750Z,13.63
2018-09-05T03:42:55.570Z,11.57
2018-09-05T03:47:38.984Z,32.53
2018-09-05T03:52:22.505Z,17.70
2018-09-05T03:57:05.964Z,16.37
2018-09-05T04:01:53.406Z,14.30
2018-09-05T04:06:36.857Z,15.90
2018-09-05T04:11:21.135Z,11.10
2018-09-05T04:16:04.534Z,11.80
2018-09-05T04:20:48.972Z,17.87
2018-09-05T04:25:33.528Z,16.00
2018-09-05T04:30:20.767Z,10.70
2018-09-05T04:35:04.159Z,11.93
2018-09-05T04:39:47.530Z,17.07
2018-09-05T04:44:31.377Z,11.40
2018-09-05T04:49:14.622Z,11.73
2018-09-05T04:53:58.152Z,10.83
2018-09-05T04:58:41.661Z,11.07
2018-09-05T05:03:25.201Z,12.80
2018-09-05T05:08:09.106Z,17.63
2018-09-05T05:12:54.051Z,13.30
2018-09-05T05:17:37.565Z,11.63
2018-09-05T05:22:22.113Z,8.23
2018-09-05T05:27:05.592Z,14.43
2018-09-05T05:31:49.140Z,12.80
2018-09-05T05:36:32.733Z,14.17
2018-09-05T05:41:19.589Z,12.60
2018-09-05T05:46:03.070Z,15.83
2018-09-05T05:50:47.069Z,13.33
2018-09-05T05:55:30.495Z,13.03
2018-09-05T06:00:15.329Z,13.63
2018-09-05T06:04:58.688Z,13.13
2018-09-05T06:09:42.101Z,18.07
2018-09-05T06:14:28.858Z,20.27
2018-09-05T06:19:12.157Z,24.27
2018-09-05T06:23:59.396Z,19.77
2018-09-05T06:28:42.762Z,22.37
2018-09-05T06:33:26.352Z,18.90
2018-09-05T06:38:09.683Z,16.67
2018-09-05T06:42:53.146Z,13.97
2018-09-05T06:47:36.478Z,26.00
2018-09-05T06:52:21.042Z,22.20
2018-09-05T06:57:04.251Z,27.07
2018-09-05T07:01:47.704Z,9.70
2018-09-05T07:06:32.102Z,11.10
2018-09-05T07:11:18.644Z,11.53
2018-09-05T07:16:02.128Z,9.53
2018-09-05T07:20:45.750Z,6.83
2018-09-05T07:25:29.290Z,7.60
2018-09-05T07:30:16.001Z,6.07
2018-09-05T07:34:59.709Z,12.83
2018-09-05T07:39:43.153Z,8.57
2018-09-05T07:44:26.933Z,11.50
2018-09-05T07:49:11.017Z,6.67
2018-09-05T07:53:54.628Z,8.40
2018-09-05T07:58:38.094Z,12.33
2018-09-05T08:03:21.768Z,7.53
2018-09-05T08:08:05.396Z,6.20
2018-09-05T08:12:51.955Z,7.13
2018-09-05T08:17:35.351Z,6.03
2018-09-05T08:22:18.823Z,5.53
2018-09-05T08:27:02.197Z,6.10
2018-09-05T08:31:47.758Z,6.03
2018-09-05T08:36:31.511Z,7.07
2018-09-05T08:41:19.478Z,6.60
2018-09-05T08:46:03.200Z,9.10
2018-09-05T08:50:47.749Z,4.87
2018-09-05T08:55:31.228Z,5.33
2018-09-05T09:00:16.611Z,4.57
2018-09-05T09:04:59.963Z,5.57
2018-09-05T09:09:47.057Z,5.50
2018-09-05T09:14:30.769Z,9.27
2018-09-05T09:19:14.080Z,5.27
2018-09-05T09:23:57.649Z,5.37
2018-09-05T09:28:40.939Z,9.70
2018-09-05T09:33:29.152Z,4.87
2018-09-05T09:38:12.635Z,5.83
2018-09-05T09:42:56.229Z,7.50
2018-09-05T09:47:39.610Z,6.20
2018-09-05T09:52:23.307Z,4.70
2018-09-05T09:57:07.042Z,6.40
2018-09-05T10:01:56.865Z,7.60
2018-09-05T10:07:43.493Z,5.83
2018-09-05T10:12:33.778Z,4.90
2018-09-05T10:17:22.915Z,5.83
2018-09-05T10:22:07.484Z,6.17
2018-09-05T10:26:51.723Z,5.97
2018-09-05T10:31:39.201Z,6.80
2018-09-05T10:36:23.554Z,6.97
2018-09-05T10:41:08.106Z,6.53
2018-09-05T10:45:52.899Z,6.60
2018-09-05T10:50:37.536Z,9.53
2018-09-05T10:55:20.912Z,8.93
2018-09-05T11:00:04.386Z,6.90
2018-09-05T11:04:47.771Z,10.77
2018-09-05T11:09:32.270Z,9.30
2018-09-05T11:14:15.623Z,7.73
2018-09-05T11:18:58.955Z,7.50
2018-09-05T11:23:42.332Z,8.93
2018-09-05T11:28:25.737Z,9.03
2018-09-05T11:33:10.237Z,9.23
2018-09-05T11:37:54.358Z,10.10
2018-09-05T11:42:37.805Z,8.83
2018-09-05T11:47:21.182Z,10.23
2018-09-05T11:52:04.910Z,10.50
2018-09-05T11:56:48.252Z,11.23
2018-09-05T12:01:32.169Z,9.93
2018-09-05T12:06:18.063Z,8.93
2018-09-05T12:11:02.469Z,8.87
2018-09-05T12:15:46.626Z,8.80
2018-09-05T12:20:31.025Z,9.83
2018-09-05T12:25:14.446Z,12.73
2018-09-05T12:29:57.931Z,10.50
2018-09-05T12:34:41.370Z,10.17
2018-09-05T12:39:25.044Z,9.73
2018-09-05T12:44:08.597Z,10.27
2018-09-05T12:48:51.942Z,17.33
2018-09-05T12:53:35.405Z,9.73
2018-09-05T12:58:18.752Z,11.03
2018-09-05T13:03:03.203Z,8.47
2018-09-05T13:07:46.694Z,9.27
2018-09-05T13:12:31.177Z,8.97
2018-09-05T13:17:14.614Z,9.20
2018-09-05T13:21:59.171Z,9.83
2018-09-05T13:26:42.817Z,14.67
2018-09-05T13:31:29.485Z,10.50
2018-09-05T13:36:12.790Z,10.70
2018-09-05T13:40:59.323Z,7.87
2018-09-05T13:45:42.710Z,9.20
2018-09-05T13:50:27.126Z,9.73
2018-09-05T13:55:10.567Z,7.63
2018-09-05T13:59:54.210Z,8.53
2018-09-05T14:04:37.326Z,9.07
2018-09-05T14:09:20.758Z,7.93
2018-09-05T14:14:04.153Z,8.47
2018-09-05T14:18:48.858Z,9.00
2018-09-05T14:23:32.093Z,12.53
2018-09-05T14:28:15.442Z,9.03
2018-09-05T14:32:59.031Z,9.63
2018-09-05T14:37:42.542Z,9.33
2018-09-05T14:42:29.450Z,9.20
2018-09-05T14:47:12.934Z,11.30
2018-09-05T14:51:56.445Z,8.53
2018-09-05T14:56:39.918Z,9.33
2018-09-05T15:02:17.339Z,12.10
2018-09-05T15:07:00.704Z,12.83
2018-09-05T15:11:47.859Z,11.87
2018-09-05T15:16:31.206Z,15.07
2018-09-05T15:21:18.455Z,13.73
2018-09-05T15:26:01.739Z,18.03
2018-09-05T15:30:48.575Z,13.30
2018-09-05T15:35:32.286Z,15.80
2018-09-05T15:40:19.196Z,14.27
2018-09-05T15:45:02.466Z,18.77
2018-09-05T15:49:48.922Z,18.43
2018-09-05T15:54:32.307Z,13.93
2018-09-05T15:59:15.727Z,15.27
2018-09-05T16:03:59.214Z,16.23
2018-09-05T16:08:42.710Z,13.90
2018-09-05T16:13:26.359Z,19.20
2018-09-05T16:18:09.746Z,22.87
2018-09-05T16:22:53.377Z,18.10
2018-09-05T16:27:36.719Z,16.63
2018-09-05T16:32:21.242Z,14.73
2018-09-05T16:37:06.406Z,16.53
2018-09-05T16:41:50.750Z,17.03
2018-09-05T16:46:34.243Z,13.27
2018-09-05T16:51:18.531Z,19.60
2018-09-05T16:56:01.927Z,23.53
2018-09-05T17:00:46.411Z,22.80
2018-09-05T17:05:29.810Z,26.37
2018-09-05T17:10:16.553Z,22.47
2018-09-05T17:15:00.014Z,28.63
2018-09-05T17:19:43.566Z,18.77
2018-09-05T17:24:26.918Z,23.90
2018-09-05T17:29:10.238Z,23.60
2018-09-05T17:33:53.669Z,19.50
2018-09-05T17:38:37.060Z,21.73
2018-09-05T17:43:20.329Z,18.80
2018-09-05T17:48:03.575Z,20.40
2018-09-05T17:52:46.970Z,25.40
2018-09-05T17:57:30.361Z,18.93
2018-09-05T18:02:14.931Z,21.30
2018-09-05T18:06:58.297Z,22.33
2018-09-05T18:11:45.546Z,23.67
2018-09-05T18:16:29.892Z,16.13
2018-09-05T18:21:13.378Z,21.70
2018-09-05T18:25:56.824Z,22.33
2018-09-05T18:30:41.508Z,19.93
2018-09-05T18:35:25.000Z,24.93
2018-09-05T18:40:08.523Z,16.47
2018-09-05T18:44:51.926Z,20.43
2018-09-05T18:49:35.574Z,19.60
2018-09-05T18:54:19.001Z,18.93
2018-09-05T18:59:04.739Z,26.33
2018-09-05T19:03:48.798Z,37.43
2018-09-05T19:08:35.485Z,20.57
2018-09-05T19:13:18.956Z,23.40
2018-09-05T19:18:02.593Z,21.00
2018-09-05T19:22:46.120Z,24.30
2018-09-05T19:27:29.578Z,14.13
2018-09-05T19:32:14.006Z,21.03
2018-09-05T19:36:57.362Z,12.40
2018-09-05T19:41:41.846Z,15.20
2018-09-05T19:46:33.471Z,14.93
2018-09-05T19:51:17.066Z,16.63
2018-09-05T19:56:00.410Z,13.93
2018-09-05T20:00:43.933Z,11.10
2018-09-05T20:05:27.265Z,8.83
2018-09-05T20:10:10.638Z,18.00
2018-09-05T20:14:54.480Z,13.77
2018-09-05T20:19:38.336Z,13.77
2018-09-05T20:24:21.690Z,23.77
2018-09-05T20:29:05.343Z,22.97
2018-09-05T20:33:48.715Z,20.17
2018-09-05T20:38:32.287Z,18.60
2018-09-05T20:43:15.769Z,22.13
2018-09-05T20:47:59.314Z,28.90
2018-09-05T20:52:42.713Z,26.27
2018-09-05T20:57:26.014Z,21.87
2018-09-05T21:02:09.379Z,29.40
2018-09-05T21:06:52.715Z,23.87
2018-09-05T21:11:36.583Z,28.33
2018-09-05T21:16:20.053Z,28.00
2018-09-05T21:21:07.091Z,30.30
2018-09-05T21:25:51.229Z,36.33
2018-09-05T21:30:34.791Z,31.13
2018-09-05T21:35:18.174Z,26.33
2018-09-05T21:40:05.502Z,42.20
2018-09-05T21:44:48.866Z,29.67
2018-09-05T21:49:32.460Z,26.33
2018-09-05T21:54:15.803Z,23.57
2018-09-05T21:58:59.325Z,25.47
2018-09-05T22:03:43.561Z,21.93
2018-09-05T22:08:27.162Z,27.37
2018-09-05T22:13:11.645Z,29.67
2018-09-05T22:17:55.810Z,24.00
2018-09-05T22:22:39.729Z,22.07
2018-09-05T22:27:23.880Z,30.90
2018-09-05T22:32:07.802Z,24.90
2018-09-05T22:36:52.054Z,35.93
2018-09-05T22:41:38.523Z,32.97
2018-09-05T22:46:32.686Z,30.13
2018-09-05T22:52:13.831Z,28.27
2018-09-05T22:57:16.295Z,28.73
2018-09-05T23:04:16.632Z,31.37
2018-09-05T23:09:01.207Z,38.70
2018-09-05T23:13:56.102Z,36.37
2018-09-05T23:19:48.440Z,29.63
2018-09-05T23:24:31.769Z,30.87
2018-09-05T23:29:18.762Z,34.57
2018-09-05T23:34:02.137Z,35.17
2018-09-05T23:38:45.498Z,21.23
2018-09-05T23:43:28.798Z,33.17
2018-09-05T23:48:12.433Z,22.67
2018-09-05T23:52:55.803Z,23.93
2018-09-05T23:57:40.199Z,24.03
